Needles, CA (92363)

12:27 AM PST on December 15, 2017 (GMT -0800)
WA6GDF Colorado River near Needles Bridge | | Change Station

Elev 479 ft 34.85 °N, 114.60 °W | Updated 13 minutes ago

Clear
Clear
61.2 °F
Feels Like 61.2 °F
N
7.0
Wind Variable Wind from ENE
Gusts 13.0 mph

Today
High -- | Low -- °F
--% Chance of Precip.
Yesterday
High -- | Low -- °F
Precip. -- in
Pressure 30.15 in
Visibility 10.0 miles
Clouds Clear
Dew Point 25 °F
Humidity 25%
Rainfall 0.00 in
Snow Depth Not available.
6:38 AM 4:28 PM
Waning Crescent, 8% visible
METAR KEED 150756Z AUTO 01015KT 10SM CLR 17/M07 A3021 RMK AO2 SLP210 T01671072 402280072
Pressure 30.15 in
Visibility 10.0 miles
Clouds Clear
Dew Point 25 °F
Humidity 25%
Rainfall 0.00 in
Snow Depth Not available.
6:38 AM 4:28 PM
Waning Crescent, 8% visible
METAR KEED 150756Z AUTO 01015KT 10SM CLR 17/M07 A3021 RMK AO2 SLP210 T01671072 402280072

Get Severe Weather Alerts

Thanks for signing up!

Be on the lookout for a verification email in your inbox.

You'll start receiving the daily forecast at 6 AM.

×

10-Day Weather Forecast

Almanac

Astronomy

Dec. 15, 2017 Rise Set
Actual Time
Civil Twilight
Nautical Twilight
Astronomical Twilight
Moon
Length of Visible Light
Length of Day
Tomorrow will be .
, % of the Moon is Illuminated

Today's Extremes

State Highs State Lows

Community

WunderPhotos

Category 6

Welcome to Category 6. This is the collective home for Weather Underground's featured writeups by Dr. Jeff Masters (right), Bob Henson (left), Chris Burt, and other regular contributors.

Nearby

Air Quality

  Air Quality AQ Index Pollutant
Not available.

Snow Depth

Station Depth Elevation

Earthquake Activity

City Distance Mag. Time & Date
Minimum magnitude displayed is 2.5.

Coastal Water Temperatures

Place Temperature

Stations

Nearby Weather Stations

Station Location Temp. Windchill Dew Point Humidity Wind Precip. Elev Updated Type
                   

Watches & Warnings

There are currently no watches in effect.